createdAt,value
2023-03-31T00:01:15.319Z,4.95
2023-03-31T00:03:44.520Z,4.25
2023-03-31T00:06:18.900Z,4.45
2023-03-31T00:08:51.637Z,3.35
2023-03-31T00:11:22.043Z,3.67
2023-03-31T00:13:50.702Z,3.80
2023-03-31T00:16:19.733Z,3.67
2023-03-31T00:18:51.044Z,3.92
2023-03-31T00:21:29.727Z,4.10
2023-03-31T00:24:04.558Z,3.47
2023-03-31T00:26:34.754Z,3.25
2023-03-31T00:29:05.412Z,3.78
2023-03-31T00:31:34.510Z,3.35
2023-03-31T00:34:03.060Z,3.80
2023-03-31T00:36:32.217Z,5.13
2023-03-31T00:39:08.243Z,3.60
2023-03-31T00:41:39.301Z,3.05
2023-03-31T00:44:22.915Z,3.87
2023-03-31T00:47:13.021Z,3.10
2023-03-31T00:49:45.636Z,3.85
2023-03-31T00:52:19.520Z,3.80
2023-03-31T00:54:58.736Z,3.10
2023-03-31T00:57:29.425Z,4.18
2023-03-31T01:00:12.659Z,3.05
2023-03-31T01:02:52.582Z,5.03
2023-03-31T01:05:26.716Z,4.47
2023-03-31T01:07:56.883Z,3.65
2023-03-31T01:10:25.945Z,3.20
2023-03-31T01:12:56.034Z,10.38
2023-03-31T01:15:24.517Z,4.72
2023-03-31T01:17:55.919Z,4.15
2023-03-31T01:20:48.378Z,3.30
2023-03-31T01:23:38.585Z,3.33
2023-03-31T01:26:50.761Z,6.43
2023-03-31T01:29:49.127Z,5.32
2023-03-31T01:32:48.239Z,5.03
2023-03-31T01:36:12.306Z,5.32
2023-03-31T01:39:01.197Z,3.53
2023-03-31T01:41:48.712Z,5.22
2023-03-31T01:44:26.162Z,4.80
2023-03-31T01:47:02.320Z,4.10
2023-03-31T01:49:42.126Z,4.35
2023-03-31T01:52:44.060Z,4.97
2023-03-31T01:55:19.670Z,5.55
2023-03-31T01:57:54.491Z,6.72
2023-03-31T02:00:29.984Z,4.80
2023-03-31T02:03:17.234Z,5.47
2023-03-31T02:06:12.579Z,5.10
2023-03-31T02:08:47.530Z,6.80
2023-03-31T02:11:16.877Z,4.97
2023-03-31T02:13:47.246Z,4.85
2023-03-31T02:16:24.585Z,8.52
2023-03-31T02:19:03.997Z,4.70
2023-03-31T02:21:34.687Z,5.47
2023-03-31T02:24:09.413Z,6.20
2023-03-31T02:26:49.407Z,5.55
2023-03-31T02:29:17.972Z,5.70
2023-03-31T02:31:52.798Z,4.78
2023-03-31T02:34:21.790Z,7.72
2023-03-31T02:36:50.728Z,4.68
2023-03-31T02:39:24.970Z,8.13
2023-03-31T02:41:54.642Z,5.47
2023-03-31T02:44:23.714Z,5.85
2023-03-31T02:46:52.647Z,4.38
2023-03-31T02:49:21.751Z,7.22
2023-03-31T02:52:15.859Z,6.63
2023-03-31T02:54:59.624Z,7.05
2023-03-31T02:57:41.625Z,3.70
2023-03-31T03:00:32.101Z,4.60
2023-03-31T03:03:16.515Z,6.88
2023-03-31T03:05:54.907Z,6.65
2023-03-31T03:08:37.702Z,6.90
2023-03-31T03:11:32.180Z,5.20
2023-03-31T03:14:21.238Z,9.32
2023-03-31T03:17:23.603Z,5.18
2023-03-31T03:19:58.818Z,6.15
2023-03-31T03:22:27.632Z,9.63
2023-03-31T03:24:56.292Z,8.00
2023-03-31T03:27:24.815Z,6.45
2023-03-31T03:29:53.218Z,8.93
2023-03-31T03:32:21.666Z,4.05
2023-03-31T03:34:50.230Z,4.03
2023-03-31T03:37:19.585Z,4.53
2023-03-31T03:39:48.140Z,5.80
2023-03-31T03:42:16.897Z,4.00
2023-03-31T03:44:45.414Z,7.90
2023-03-31T03:47:14.106Z,5.50
2023-03-31T03:49:42.672Z,3.53
2023-03-31T03:52:11.152Z,8.27
2023-03-31T03:54:39.571Z,4.10
2023-03-31T03:57:07.963Z,6.88
2023-03-31T03:59:36.406Z,5.13
2023-03-31T04:02:04.954Z,3.95
2023-03-31T04:04:33.637Z,4.00
2023-03-31T04:07:02.201Z,6.68
2023-03-31T04:09:30.923Z,7.32
2023-03-31T04:11:59.439Z,5.93
2023-03-31T04:14:27.915Z,3.70
2023-03-31T04:16:58.516Z,3.97
2023-03-31T04:19:27.602Z,4.53
2023-03-31T04:22:02.664Z,5.07
2023-03-31T04:24:32.790Z,4.13
2023-03-31T04:27:03.206Z,3.60
2023-03-31T04:29:33.617Z,3.65
2023-03-31T04:32:03.011Z,4.25
2023-03-31T04:34:37.415Z,3.92
2023-03-31T04:37:06.040Z,6.57
2023-03-31T04:39:34.719Z,3.72
2023-03-31T04:42:03.369Z,4.18
2023-03-31T04:44:31.817Z,3.90
2023-03-31T04:47:03.248Z,3.20
2023-03-31T04:49:33.685Z,4.43
2023-03-31T04:52:02.232Z,6.28
2023-03-31T04:54:30.776Z,2.90
2023-03-31T04:56:59.218Z,2.90
2023-03-31T04:59:27.735Z,4.40
2023-03-31T05:01:56.293Z,4.18
2023-03-31T05:04:24.844Z,3.05
2023-03-31T05:06:53.508Z,3.20
2023-03-31T05:09:22.158Z,3.13
2023-03-31T05:11:50.652Z,5.28
2023-03-31T05:14:19.482Z,4.03
2023-03-31T05:16:47.956Z,2.92
2023-03-31T05:19:18.318Z,4.88
2023-03-31T05:21:46.817Z,5.18
2023-03-31T05:24:15.272Z,4.40
2023-03-31T05:26:48.445Z,2.45
2023-03-31T05:29:16.874Z,3.97
2023-03-31T05:31:45.981Z,5.18
2023-03-31T05:34:15.823Z,3.22
2023-03-31T05:36:44.416Z,3.65
2023-03-31T05:39:12.791Z,5.28
2023-03-31T05:41:41.245Z,6.32
2023-03-31T05:44:09.736Z,2.63
2023-03-31T05:46:38.559Z,3.30
2023-03-31T05:49:08.158Z,3.80
2023-03-31T05:51:36.686Z,2.83
2023-03-31T05:54:06.429Z,4.10
2023-03-31T05:56:35.043Z,4.00
2023-03-31T05:59:05.234Z,3.00
2023-03-31T06:01:34.000Z,3.60
2023-03-31T06:04:02.546Z,4.20
2023-03-31T06:06:34.026Z,7.78
2023-03-31T06:09:05.070Z,5.85
2023-03-31T06:11:33.470Z,5.60
2023-03-31T06:14:01.892Z,4.13
2023-03-31T06:16:30.588Z,5.95
2023-03-31T06:18:59.180Z,11.27
2023-03-31T06:21:27.710Z,5.97
2023-03-31T06:23:58.152Z,3.13
2023-03-31T06:26:27.875Z,3.55
2023-03-31T06:28:56.469Z,3.97
2023-03-31T06:31:25.528Z,5.93
2023-03-31T06:33:54.053Z,4.05
2023-03-31T06:36:22.803Z,3.72
2023-03-31T06:38:51.435Z,4.15
2023-03-31T06:41:21.131Z,3.15
2023-03-31T06:43:50.023Z,3.33
2023-03-31T06:46:18.862Z,4.00
2023-03-31T06:48:47.421Z,5.75
2023-03-31T06:51:16.393Z,4.45
2023-03-31T06:53:44.883Z,5.32
2023-03-31T06:56:13.368Z,7.47
2023-03-31T06:58:41.914Z,6.68
2023-03-31T07:01:11.833Z,6.50
2023-03-31T07:03:40.875Z,5.20
2023-03-31T07:06:09.425Z,5.47
2023-03-31T07:08:37.910Z,4.43
2023-03-31T07:11:06.739Z,4.28
2023-03-31T07:13:35.524Z,4.75
2023-03-31T07:16:05.242Z,4.32
2023-03-31T07:18:35.660Z,6.43
2023-03-31T07:21:07.952Z,7.03
2023-03-31T07:23:38.077Z,10.95
2023-03-31T07:26:06.722Z,5.72
2023-03-31T07:28:35.343Z,3.92
2023-03-31T07:31:10.965Z,3.42
2023-03-31T07:33:39.782Z,7.85
2023-03-31T07:36:13.323Z,2.53
2023-03-31T07:38:46.755Z,5.85
2023-03-31T07:41:18.944Z,3.40
2023-03-31T07:46:24.989Z,3.65
2023-03-31T07:48:54.902Z,3.67
2023-03-31T07:51:26.560Z,4.93
2023-03-31T07:53:55.181Z,5.45
2023-03-31T07:56:24.905Z,5.25
2023-03-31T07:58:56.076Z,5.57
2023-03-31T08:01:26.646Z,7.20
2023-03-31T08:03:56.101Z,5.32
2023-03-31T08:06:26.822Z,6.10
2023-03-31T08:08:56.218Z,6.47
2023-03-31T08:11:25.996Z,6.45
2023-03-31T08:13:54.619Z,4.90
2023-03-31T08:16:23.171Z,6.97
2023-03-31T08:18:51.668Z,5.15
2023-03-31T08:21:22.281Z,6.60
2023-03-31T08:26:24.332Z,6.63
2023-03-31T08:28:53.896Z,5.95
2023-03-31T08:31:25.984Z,5.80
2023-03-31T08:33:56.063Z,4.68
2023-03-31T08:36:25.997Z,7.57
2023-03-31T08:38:54.773Z,5.05
2023-03-31T08:41:41.728Z,7.75
2023-03-31T08:44:16.500Z,8.57
2023-03-31T08:46:45.340Z,6.53
2023-03-31T08:49:16.941Z,7.75
2023-03-31T08:51:50.546Z,7.05
2023-03-31T08:54:32.880Z,6.22
2023-03-31T08:57:03.887Z,7.65
2023-03-31T08:59:37.565Z,7.55
2023-03-31T09:02:13.557Z,7.90
2023-03-31T09:05:12.912Z,6.40
2023-03-31T09:07:48.912Z,5.78
2023-03-31T09:10:35.962Z,6.43
2023-03-31T09:13:10.441Z,8.15
2023-03-31T09:16:02.596Z,6.75
2023-03-31T09:18:36.740Z,8.77
2023-03-31T09:21:13.220Z,7.38
2023-03-31T09:23:53.793Z,7.03
2023-03-31T09:26:27.498Z,8.20
2023-03-31T09:28:59.347Z,7.85
2023-03-31T09:31:28.555Z,6.55
2023-03-31T09:34:01.864Z,7.63
2023-03-31T09:36:30.862Z,7.05
2023-03-31T09:38:59.331Z,6.97
2023-03-31T09:41:27.880Z,8.32
2023-03-31T09:43:56.459Z,7.68
2023-03-31T09:46:30.941Z,4.28
2023-03-31T09:49:15.404Z,6.03
2023-03-31T09:51:52.872Z,7.75
2023-03-31T09:54:32.095Z,6.72
2023-03-31T09:57:00.688Z,4.57
2023-03-31T09:59:34.874Z,6.03
2023-03-31T10:02:28.476Z,5.95
2023-03-31T10:04:57.187Z,7.10
2023-03-31T10:07:26.399Z,4.70
2023-03-31T10:09:56.396Z,6.32
2023-03-31T10:12:29.224Z,5.65
2023-03-31T10:15:28.029Z,5.32
2023-03-31T10:17:58.646Z,9.20
2023-03-31T10:20:30.049Z,7.75
2023-03-31T10:23:03.311Z,6.28
2023-03-31T10:25:33.842Z,6.60
2023-03-31T10:28:03.146Z,4.38
2023-03-31T10:30:37.971Z,5.10
2023-03-31T10:33:23.161Z,5.10
2023-03-31T10:36:15.588Z,6.70
2023-03-31T10:38:48.180Z,5.55
2023-03-31T10:41:25.801Z,5.15
2023-03-31T10:43:56.604Z,5.53
2023-03-31T10:46:52.673Z,6.18
2023-03-31T10:49:21.183Z,5.47
2023-03-31T10:52:01.246Z,4.53
2023-03-31T10:54:29.708Z,4.80
2023-03-31T10:57:01.642Z,5.40
2023-03-31T11:02:35.475Z,4.57
2023-03-31T11:05:22.569Z,5.47
2023-03-31T11:08:13.392Z,4.95
2023-03-31T11:10:58.855Z,6.50
2023-03-31T11:13:41.199Z,6.97
2023-03-31T11:18:56.917Z,7.68
2023-03-31T11:21:52.288Z,6.93
2023-03-31T11:24:40.661Z,6.03
2023-03-31T11:27:44.660Z,5.25
2023-03-31T11:30:25.253Z,5.35
2023-03-31T11:33:02.811Z,4.80
2023-03-31T11:35:50.925Z,6.32
2023-03-31T11:38:48.062Z,5.55
2023-03-31T11:41:23.293Z,7.22
2023-03-31T11:43:55.815Z,6.30
2023-03-31T11:46:30.961Z,6.82
2023-03-31T11:49:06.560Z,6.70
2023-03-31T11:52:17.874Z,5.03
2023-03-31T11:54:48.973Z,6.47
2023-03-31T11:57:23.957Z,9.02
2023-03-31T12:00:06.450Z,7.20
2023-03-31T12:02:57.908Z,8.82
2023-03-31T12:05:30.660Z,6.40
2023-03-31T12:08:33.126Z,6.88
2023-03-31T12:11:13.318Z,4.75
2023-03-31T12:13:53.291Z,5.65
2023-03-31T12:16:46.234Z,6.93
2023-03-31T12:19:22.566Z,4.68
2023-03-31T12:22:14.402Z,8.90
2023-03-31T12:24:43.027Z,6.43
2023-03-31T12:27:33.606Z,6.68
2023-03-31T12:30:10.353Z,5.65
2023-03-31T12:32:48.869Z,5.60
2023-03-31T12:35:20.213Z,5.10
2023-03-31T12:38:00.096Z,5.05
2023-03-31T12:40:54.950Z,5.22
2023-03-31T12:43:43.839Z,5.78
2023-03-31T12:46:30.567Z,3.67
2023-03-31T12:49:17.859Z,5.18
2023-03-31T12:51:55.277Z,4.50
2023-03-31T12:54:48.822Z,4.65
2023-03-31T12:57:27.484Z,3.50
2023-03-31T13:00:12.183Z,4.63
2023-03-31T13:02:41.319Z,5.50
2023-03-31T13:05:37.961Z,4.65
2023-03-31T13:08:10.543Z,5.32
2023-03-31T13:10:59.215Z,5.30
2023-03-31T13:13:27.925Z,4.45
2023-03-31T13:15:59.791Z,5.00
2023-03-31T13:18:33.564Z,4.57
2023-03-31T13:21:08.304Z,6.28
2023-03-31T13:23:37.839Z,4.72
2023-03-31T13:26:06.954Z,3.28
2023-03-31T13:28:43.844Z,2.75
2023-03-31T13:31:14.690Z,5.72
2023-03-31T13:33:57.532Z,3.13
2023-03-31T13:36:32.431Z,4.75
2023-03-31T13:39:16.583Z,6.50
2023-03-31T13:41:53.495Z,4.88
2023-03-31T13:44:40.632Z,4.32
2023-03-31T13:47:35.076Z,4.03
2023-03-31T13:50:31.641Z,6.35
2023-03-31T13:53:27.968Z,3.88
2023-03-31T13:56:24.323Z,2.63
2023-03-31T13:59:30.009Z,3.97
2023-03-31T14:02:06.727Z,3.63
2023-03-31T14:04:41.113Z,4.60
2023-03-31T14:07:16.967Z,5.00
2023-03-31T14:09:52.056Z,2.80
2023-03-31T14:12:31.395Z,3.22
2023-03-31T14:15:00.322Z,6.07
2023-03-31T14:17:35.926Z,4.63
2023-03-31T14:20:22.945Z,4.28
2023-03-31T14:23:32.180Z,2.85
2023-03-31T14:26:34.621Z,3.92
2023-03-31T14:29:15.277Z,2.30
2023-03-31T14:32:03.225Z,2.38
2023-03-31T14:34:32.205Z,2.20
2023-03-31T14:37:04.696Z,1.83
2023-03-31T14:39:40.451Z,1.75
2023-03-31T14:42:15.892Z,2.00
2023-03-31T14:44:47.866Z,2.95
2023-03-31T14:47:21.963Z,1.52
2023-03-31T14:50:12.930Z,2.45
2023-03-31T14:52:50.062Z,1.60
2023-03-31T14:55:26.503Z,2.25
2023-03-31T14:58:02.951Z,2.05
2023-03-31T15:00:34.435Z,1.48
2023-03-31T15:03:07.743Z,1.50
2023-03-31T15:05:39.708Z,4.10
2023-03-31T15:08:14.140Z,0.90
2023-03-31T15:10:54.071Z,1.02
2023-03-31T15:13:33.967Z,1.30
2023-03-31T15:16:41.914Z,2.53
2023-03-31T15:19:18.798Z,2.63
2023-03-31T15:21:56.156Z,1.30
2023-03-31T15:24:24.761Z,1.30
2023-03-31T15:27:15.007Z,1.55
2023-03-31T15:29:51.149Z,1.48
2023-03-31T15:32:27.199Z,2.05
2023-03-31T15:35:02.443Z,1.35
2023-03-31T15:37:44.004Z,1.88
2023-03-31T15:40:24.464Z,1.30
2023-03-31T15:43:27.841Z,1.13
2023-03-31T15:45:58.668Z,2.85
2023-03-31T15:48:33.391Z,1.90
2023-03-31T15:51:20.807Z,1.20
2023-03-31T15:53:55.899Z,1.55
2023-03-31T15:56:44.457Z,2.17
2023-03-31T15:59:55.350Z,1.17
2023-03-31T16:02:29.057Z,1.63
2023-03-31T16:04:59.492Z,1.10
2023-03-31T16:07:34.680Z,2.10
2023-03-31T16:10:08.818Z,0.93
2023-03-31T16:12:49.201Z,1.60
2023-03-31T16:15:28.025Z,1.10
2023-03-31T16:18:10.079Z,0.93
2023-03-31T16:20:46.054Z,2.10
2023-03-31T16:23:18.097Z,1.17
2023-03-31T16:25:47.335Z,1.40
2023-03-31T16:28:21.950Z,2.03
2023-03-31T16:30:50.592Z,3.00
2023-03-31T16:33:23.087Z,1.80
2023-03-31T16:35:55.916Z,1.42
2023-03-31T16:38:26.650Z,2.90
2023-03-31T16:40:58.873Z,1.50
2023-03-31T16:43:29.008Z,2.30
2023-03-31T16:45:59.383Z,2.30
2023-03-31T16:48:30.058Z,1.77
2023-03-31T16:50:59.034Z,1.67
2023-03-31T16:53:36.105Z,1.70
2023-03-31T16:56:09.709Z,2.70
2023-03-31T16:58:38.984Z,1.67
2023-03-31T17:01:08.924Z,2.17
2023-03-31T17:03:39.720Z,1.95
2023-03-31T17:06:11.324Z,2.80
2023-03-31T17:08:40.368Z,2.65
2023-03-31T17:11:12.607Z,3.75
2023-03-31T17:13:42.570Z,3.35
2023-03-31T17:18:43.795Z,1.85
2023-03-31T17:21:14.862Z,2.42
2023-03-31T17:23:43.326Z,2.15
2023-03-31T17:26:13.054Z,3.42
2023-03-31T17:28:42.539Z,2.45
2023-03-31T17:31:20.503Z,1.50
2023-03-31T17:33:49.142Z,2.05
2023-03-31T17:36:17.837Z,1.60
2023-03-31T17:38:46.345Z,1.52
2023-03-31T17:41:15.612Z,1.40
2023-03-31T17:43:45.613Z,2.65
2023-03-31T17:46:14.219Z,1.85
2023-03-31T17:48:43.622Z,3.45
2023-03-31T17:51:18.267Z,1.75
2023-03-31T17:53:47.888Z,1.55
2023-03-31T17:56:17.606Z,3.15
2023-03-31T17:58:46.761Z,2.15
2023-03-31T18:01:15.421Z,2.20
2023-03-31T18:03:46.150Z,4.43
2023-03-31T18:06:15.339Z,1.50
2023-03-31T18:08:44.444Z,1.98
2023-03-31T18:11:13.387Z,1.90
2023-03-31T18:13:42.018Z,2.55
2023-03-31T18:16:12.725Z,1.63
2023-03-31T18:18:42.294Z,2.65
2023-03-31T18:21:13.108Z,1.90
2023-03-31T18:23:41.712Z,3.75
2023-03-31T18:26:12.429Z,2.50
2023-03-31T18:28:41.261Z,1.77
2023-03-31T18:31:10.633Z,2.65
2023-03-31T18:33:39.913Z,4.88
2023-03-31T18:36:15.243Z,3.30
2023-03-31T18:38:45.250Z,2.83
2023-03-31T18:41:14.892Z,5.18
2023-03-31T18:43:43.571Z,2.15
2023-03-31T18:46:11.984Z,3.05
2023-03-31T18:48:42.033Z,2.17
2023-03-31T18:51:11.064Z,3.15
2023-03-31T18:53:39.670Z,3.25
2023-03-31T18:56:08.106Z,3.30
2023-03-31T18:58:37.342Z,2.78
2023-03-31T19:01:05.965Z,2.75
2023-03-31T19:03:34.510Z,2.90
2023-03-31T19:06:10.214Z,4.85
2023-03-31T19:08:39.117Z,3.20
2023-03-31T19:11:13.125Z,3.00
2023-03-31T19:13:42.879Z,3.83
2023-03-31T19:16:13.129Z,2.00
2023-03-31T19:18:43.123Z,3.30
2023-03-31T19:21:11.969Z,4.20
2023-03-31T19:23:40.643Z,2.85
2023-03-31T19:26:13.437Z,4.15
2023-03-31T19:28:42.344Z,2.20
2023-03-31T19:31:11.240Z,2.75
2023-03-31T19:33:39.648Z,2.22
2023-03-31T19:36:08.252Z,2.45
2023-03-31T19:38:36.760Z,3.72
2023-03-31T19:41:05.954Z,3.47
2023-03-31T19:43:34.597Z,3.05
2023-03-31T19:46:03.481Z,2.78
2023-03-31T19:48:33.586Z,2.63
2023-03-31T19:51:06.268Z,3.13
2023-03-31T19:53:38.332Z,4.03
2023-03-31T19:56:12.766Z,3.03
2023-03-31T19:58:41.341Z,6.68
2023-03-31T20:01:27.330Z,4.05
2023-03-31T20:03:56.496Z,3.72
2023-03-31T20:06:28.442Z,4.63
2023-03-31T20:09:00.912Z,2.67
2023-03-31T20:11:31.978Z,2.88
2023-03-31T20:14:01.837Z,5.10
2023-03-31T20:16:31.232Z,4.50
2023-03-31T20:19:04.279Z,4.00
2023-03-31T20:21:35.652Z,6.22
2023-03-31T20:24:05.642Z,5.03
2023-03-31T20:26:34.790Z,2.78
2023-03-31T20:29:04.041Z,4.20
2023-03-31T20:31:37.391Z,3.72
2023-03-31T20:34:12.475Z,5.22
2023-03-31T20:36:43.226Z,5.95
2023-03-31T20:39:14.710Z,3.40
2023-03-31T20:41:43.600Z,6.55
2023-03-31T20:44:15.829Z,6.00
2023-03-31T20:46:45.019Z,3.35
2023-03-31T20:49:13.913Z,6.38
2023-03-31T20:51:42.649Z,5.38
2023-03-31T20:54:11.833Z,6.47
2023-03-31T20:56:41.354Z,4.35
2023-03-31T20:59:12.816Z,4.32
2023-03-31T21:01:42.537Z,6.63
2023-03-31T21:04:11.875Z,6.75
2023-03-31T21:06:43.775Z,6.43
2023-03-31T21:09:13.598Z,3.85
2023-03-31T21:11:42.139Z,4.45
2023-03-31T21:14:13.231Z,4.88
2023-03-31T21:16:41.734Z,4.55
2023-03-31T21:19:11.062Z,5.47
2023-03-31T21:21:41.193Z,6.35
2023-03-31T21:24:12.325Z,3.95
2023-03-31T21:26:40.789Z,4.72
2023-03-31T21:29:09.273Z,5.65
2023-03-31T21:31:38.007Z,4.68
2023-03-31T21:34:06.454Z,3.78
2023-03-31T21:36:34.998Z,3.60
2023-03-31T21:39:05.006Z,6.13
2023-03-31T21:41:33.567Z,6.43
2023-03-31T21:44:03.237Z,7.45
2023-03-31T21:46:33.506Z,5.00
2023-03-31T21:49:02.874Z,3.30
2023-03-31T21:51:31.480Z,3.72
2023-03-31T21:53:59.906Z,3.30
2023-03-31T21:56:31.844Z,3.95
2023-03-31T21:59:02.388Z,3.70
2023-03-31T22:01:31.494Z,3.58
2023-03-31T22:04:00.587Z,5.05
2023-03-31T22:06:29.395Z,3.17
2023-03-31T22:08:57.888Z,2.95
2023-03-31T22:11:27.027Z,5.68
2023-03-31T22:13:56.673Z,3.95
2023-03-31T22:16:25.286Z,5.15
2023-03-31T22:18:54.629Z,5.28
2023-03-31T22:21:25.490Z,3.00
2023-03-31T22:23:56.760Z,2.92
2023-03-31T22:26:27.060Z,4.07
2023-03-31T22:28:55.909Z,3.25
2023-03-31T22:31:26.313Z,3.88
2023-03-31T22:33:54.950Z,3.45
2023-03-31T22:36:23.371Z,2.55
2023-03-31T22:38:51.818Z,3.05
2023-03-31T22:41:20.502Z,4.35
2023-03-31T22:43:48.929Z,2.38
2023-03-31T22:46:17.334Z,4.00
2023-03-31T22:48:51.066Z,3.58
2023-03-31T22:51:19.588Z,6.50
2023-03-31T22:53:52.571Z,4.22
2023-03-31T22:56:23.021Z,4.45
2023-03-31T22:58:52.583Z,2.90
2023-03-31T23:01:21.829Z,3.80
2023-03-31T23:03:50.690Z,4.10
2023-03-31T23:06:19.212Z,3.70
2023-03-31T23:08:50.816Z,4.15
2023-03-31T23:11:19.385Z,2.25
2023-03-31T23:13:47.991Z,3.72
2023-03-31T23:16:18.047Z,4.47
2023-03-31T23:18:48.358Z,3.40
2023-03-31T23:21:19.514Z,4.47
2023-03-31T23:23:51.242Z,2.67
2023-03-31T23:26:21.270Z,3.13
2023-03-31T23:28:50.666Z,3.25
2023-03-31T23:31:22.175Z,2.88
2023-03-31T23:33:50.795Z,3.78
2023-03-31T23:36:21.202Z,2.65
2023-03-31T23:38:52.961Z,7.47
2023-03-31T23:41:22.685Z,3.60
2023-03-31T23:43:51.238Z,4.03
2023-03-31T23:46:19.775Z,3.38
2023-03-31T23:48:48.587Z,4.72
2023-03-31T23:51:18.783Z,2.17
2023-03-31T23:53:47.427Z,3.38
2023-03-31T23:56:15.846Z,4.15
2023-03-31T23:58:45.158Z,2.90
